createdAt,value
2022-10-06T00:02:08.292Z,13.45
2022-10-06T00:17:11.524Z,13.37
2022-10-06T00:32:14.467Z,13.29
2022-10-06T00:47:19.721Z,13.21
2022-10-06T01:02:34.526Z,13.17
2022-10-06T01:17:43.310Z,13.05
2022-10-06T01:32:46.353Z,12.98
2022-10-06T01:47:49.470Z,12.92
2022-10-06T02:02:52.999Z,12.80
2022-10-06T02:17:56.248Z,12.74
2022-10-06T02:33:03.021Z,12.71
2022-10-06T02:48:06.033Z,12.57
2022-10-06T03:03:09.725Z,12.51
2022-10-06T03:18:13.229Z,12.52
2022-10-06T03:33:16.280Z,12.58
2022-10-06T03:48:19.464Z,12.53
2022-10-06T04:03:22.888Z,12.40
2022-10-06T04:18:26.628Z,12.35
2022-10-06T04:33:32.710Z,12.32
2022-10-06T04:48:35.980Z,12.44
2022-10-06T05:03:39.641Z,12.68
2022-10-06T05:18:43.734Z,12.81
2022-10-06T05:33:48.240Z,12.91
2022-10-06T05:48:55.746Z,13.21
2022-10-06T06:04:03.458Z,13.60
2022-10-06T06:19:13.504Z,13.98
2022-10-06T06:34:18.792Z,14.31
2022-10-06T06:49:23.047Z,15.12
2022-10-06T07:04:33.034Z,16.06
2022-10-06T07:19:51.403Z,16.64
2022-10-06T07:34:55.794Z,17.34
2022-10-06T07:49:59.654Z,18.04
2022-10-06T08:05:04.523Z,17.83
2022-10-06T08:20:11.012Z,17.70
2022-10-06T08:35:15.071Z,17.59
2022-10-06T08:50:21.605Z,18.19
2022-10-06T09:05:30.121Z,18.59
2022-10-06T09:20:38.288Z,18.45
2022-10-06T09:36:09.286Z,19.01
2022-10-06T09:51:17.948Z,19.69
2022-10-06T10:06:28.338Z,19.97
2022-10-06T10:21:34.077Z,20.29
2022-10-06T10:36:51.542Z,20.90
2022-10-06T10:52:03.813Z,21.18
2022-10-06T11:07:21.449Z,21.64
2022-10-06T11:22:41.889Z,22.21
2022-10-06T11:37:56.630Z,22.04
2022-10-06T11:53:00.268Z,22.33
2022-10-06T12:08:04.467Z,22.76
2022-10-06T12:23:22.799Z,23.25
2022-10-06T12:38:33.346Z,22.69
2022-10-06T12:54:11.492Z,22.23
2022-10-06T13:09:14.748Z,23.31
2022-10-06T13:24:20.831Z,24.05
2022-10-06T13:39:26.397Z,28.85
2022-10-06T13:54:38.348Z,30.52
2022-10-06T14:09:43.805Z,28.71
2022-10-06T14:24:51.449Z,29.46
2022-10-06T14:39:56.357Z,28.89
2022-10-06T14:55:00.313Z,25.00
2022-10-06T15:10:06.356Z,21.89
2022-10-06T15:25:30.477Z,22.34
2022-10-06T15:40:34.098Z,24.21
2022-10-06T15:55:39.087Z,23.84
2022-10-06T16:10:43.300Z,20.79
2022-10-06T16:25:46.679Z,18.76
2022-10-06T16:40:57.424Z,17.85
2022-10-06T16:56:00.957Z,17.41
2022-10-06T17:11:18.766Z,16.83
2022-10-06T17:26:24.659Z,16.06
2022-10-06T17:41:34.283Z,15.49
2022-10-06T17:56:39.034Z,15.18
2022-10-06T18:11:44.556Z,14.77
2022-10-06T18:26:49.882Z,14.38
2022-10-06T18:42:26.111Z,14.12
2022-10-06T18:57:29.876Z,13.81
2022-10-06T19:12:33.553Z,13.54
2022-10-06T19:27:38.801Z,13.55
2022-10-06T19:42:48.598Z,13.36
2022-10-06T19:57:51.902Z,13.09
2022-10-06T20:12:55.911Z,12.72
2022-10-06T20:27:59.344Z,12.42
2022-10-06T20:43:02.995Z,12.08
2022-10-06T20:58:05.977Z,11.62
2022-10-06T21:13:09.945Z,11.30
2022-10-06T21:28:14.054Z,11.24
2022-10-06T21:43:17.102Z,10.96
2022-10-06T21:58:20.031Z,10.58
2022-10-06T22:13:23.373Z,10.51
2022-10-06T22:28:26.967Z,10.41
2022-10-06T22:43:30.796Z,10.24
2022-10-06T22:58:34.159Z,10.02
2022-10-06T23:13:37.622Z,9.94
2022-10-06T23:28:41.391Z,9.83
2022-10-06T23:43:44.520Z,9.64
2022-10-06T23:58:48.159Z,9.44
